Time;durP1;ratioP1;P1;durP2;ratioP2;P2;SDS_P1;SDS_P2;PMS_P1;PMS_P2;Temp;Humidity;BMP_temperature;BMP_pressure;BME280_temperature;BME280_humidity;BME280_pressure;Samples;Min_cycle;Max_cycle;Signal;HPM_P1;HPM_P2
2022/05/04 00:02:23;;;;;;;11.03;3.27;;;;;;;19.52;41.17;101871.56;5092012;28;20033;-54
2022/05/04 00:04:49;;;;;;;11.00;3.67;;;;;;;19.48;40.01;101871.19;5062827;28;20274;-53
2022/05/04 00:07:14;;;;;;;11.60;3.63;;;;;;;18.42;42.46;101874.88;5081056;28;20051;-52
2022/05/04 00:09:40;;;;;;;10.90;4.30;;;;;;;18.48;42.74;101876.69;5085923;28;20040;-51
2022/05/04 00:12:06;;;;;;;12.03;3.67;;;;;;;17.95;43.39;101869.81;5084531;28;20041;-50
2022/05/04 00:14:32;;;;;;;15.18;3.45;;;;;;;18.03;43.27;101873.13;5076717;28;20281;-54
2022/05/04 00:16:57;;;;;;;12.18;3.65;;;;;;;18.32;42.85;101872.69;5093608;28;20101;-54
2022/05/04 00:19:22;;;;;;;8.97;3.30;;;;;;;18.43;42.74;101865.72;5082947;28;20029;-51
2022/05/04 00:21:48;;;;;;;11.17;3.30;;;;;;;18.38;42.77;101869.06;5086879;28;20286;-52
2022/05/04 00:24:14;;;;;;;12.17;3.50;;;;;;;17.90;43.60;101867.81;5089865;28;20040;-52
2022/05/04 00:26:40;;;;;;;11.38;3.70;;;;;;;18.20;43.44;101867.16;5079625;28;20044;-50
2022/05/04 00:29:05;;;;;;;13.03;3.77;;;;;;;18.45;42.72;101864.44;5092744;28;20092;-51
2022/05/04 00:31:30;;;;;;;14.27;3.87;;;;;;;18.13;43.25;101858.28;5084112;28;20036;-51
2022/05/04 00:33:56;;;;;;;15.30;4.20;;;;;;;18.15;43.48;101859.69;5085564;28;20029;-51
2022/05/04 00:36:21;;;;;;;14.10;4.37;;;;;;;18.36;43.23;101859.53;5090962;28;20032;-52
2022/05/04 00:38:47;;;;;;;11.93;3.97;;;;;;;18.31;43.00;101861.00;5079864;28;20101;-56
2022/05/04 00:41:13;;;;;;;11.18;3.70;;;;;;;18.24;43.13;101862.97;5091481;28;20033;-54
2022/05/04 00:43:38;;;;;;;10.10;3.40;;;;;;;17.85;43.86;101863.03;5075772;28;20045;-55
2022/05/04 00:46:03;;;;;;;12.43;3.83;;;;;;;17.87;43.78;101858.22;5088434;28;20128;-56
2022/05/04 00:48:29;;;;;;;13.23;3.50;;;;;;;17.63;44.32;101857.97;5080207;28;20067;-50
2022/05/04 00:50:55;;;;;;;11.47;4.03;;;;;;;18.11;43.69;101863.91;5092992;28;20040;-51
2022/05/04 00:53:21;;;;;;;12.95;3.30;;;;;;;18.23;43.20;101869.44;5076204;28;20063;-53
2022/05/04 00:55:47;;;;;;;;;;;;;;;18.23;43.32;101860.50;5085731;28;20046;-51
2022/05/04 01:01:00;;;;;;;12.27;4.30;;;;;;;18.26;43.42;101860.84;5092745;28;20043;-49
2022/05/04 01:03:26;;;;;;;9.00;3.53;;;;;;;17.94;44.04;101854.63;5075602;28;20033;-50
2022/05/04 01:05:52;;;;;;;12.23;3.57;;;;;;;17.92;44.19;101863.81;5086009;28;20047;-49
2022/05/04 01:08:17;;;;;;;14.47;3.77;;;;;;;18.10;43.75;101864.97;5082225;28;20287;-53
2022/05/04 01:10:42;;;;;;;15.37;4.03;;;;;;;18.17;43.73;101862.19;5091947;28;20402;-51
2022/05/04 01:13:08;;;;;;;15.30;4.63;;;;;;;18.20;43.66;101861.75;5076085;28;20067;-55
2022/05/04 01:15:33;;;;;;;14.37;3.53;;;;;;;18.04;43.74;101855.84;5076160;28;20036;-51
2022/05/04 01:17:59;;;;;;;17.30;3.60;;;;;;;18.10;43.82;101853.28;5086805;28;20064;-49
2022/05/04 01:20:25;;;;;;;9.38;3.22;;;;;;;17.87;44.17;101855.53;5080831;28;20033;-55
2022/05/04 01:22:50;;;;;;;11.02;3.90;;;;;;;18.01;43.91;101858.16;5092195;28;20064;-53
2022/05/04 01:25:16;;;;;;;11.67;4.00;;;;;;;17.96;44.04;101855.25;5080440;28;20098;-54
2022/05/04 01:27:41;;;;;;;15.83;4.13;;;;;;;17.57;44.78;101853.44;5086672;28;20040;-54
2022/05/04 01:30:07;;;;;;;10.33;3.07;;;;;;;17.69;44.79;101855.44;5087738;28;20037;-52
2022/05/04 01:32:33;;;;;;;;;;;;;;;17.57;44.83;101852.59;5079737;28;20273;-52
2022/05/04 01:34:59;;;;;;;19.33;5.23;;;;;;;17.44;45.24;101850.81;5076430;28;20257;-54
2022/05/04 01:37:25;;;;;;;12.05;3.50;;;;;;;17.55;45.03;101852.84;5088624;28;20039;-52
2022/05/04 01:39:50;;;;;;;12.40;4.80;;;;;;;17.55;45.42;101850.13;5084852;28;20036;-53
2022/05/04 01:42:16;;;;;;;12.10;4.82;;;;;;;17.71;44.93;101847.94;5081592;28;20033;-54
2022/05/04 01:44:44;;;;;;;12.90;5.23;;;;;;;17.63;45.19;101849.88;5090750;28;20148;-52
2022/05/04 01:47:11;;;;;;;12.40;3.70;;;;;;;17.48;45.36;101855.59;5074536;28;20280;-52
2022/05/04 01:49:37;;;;;;;14.45;5.65;;;;;;;17.25;46.01;101849.88;5083085;28;20052;-52
2022/05/04 01:52:03;;;;;;;13.55;3.70;;;;;;;17.30;45.98;101845.50;5083548;28;20045;-52
2022/05/04 01:54:29;;;;;;;16.23;4.60;;;;;;;17.33;45.94;101847.75;5089755;28;20090;-55
2022/05/04 01:56:55;;;;;;;11.10;3.65;;;;;;;17.59;45.55;101851.34;5076032;28;20029;-52
2022/05/04 01:59:21;;;;;;;15.32;4.22;;;;;;;17.71;45.12;101850.63;5080466;28;20036;-56
2022/05/04 02:01:47;;;;;;;12.13;4.28;;;;;;;17.63;45.53;101852.56;5085558;28;20120;-54
2022/05/04 02:04:14;;;;;;;16.02;5.13;;;;;;;17.56;45.59;101846.38;5087498;28;20096;-53
2022/05/04 02:06:40;;;;;;;12.43;3.65;;;;;;;17.60;45.53;101850.31;5071850;28;20037;-53
2022/05/04 02:09:06;;;;;;;9.52;4.63;;;;;;;17.61;45.52;101854.66;5076126;28;20037;-53
2022/05/04 02:11:33;;;;;;;11.57;3.88;;;;;;;17.52;45.71;101849.72;5087413;28;20048;-52
2022/05/04 02:13:59;;;;;;;11.02;3.75;;;;;;;17.55;45.70;101849.28;5074702;28;20045;-52
2022/05/04 02:16:25;;;;;;;13.38;3.90;;;;;;;18.34;44.84;101847.06;5088879;28;20029;-55
2022/05/04 02:18:51;;;;;;;18.80;5.18;;;;;;;17.75;45.20;101851.84;5077813;28;20041;-54
2022/05/04 02:21:16;;;;;;;12.27;3.70;;;;;;;17.59;45.68;101850.50;5089718;28;20040;-49
2022/05/04 02:23:42;;;;;;;10.27;4.33;;;;;;;17.30;46.36;101845.50;5082732;28;20043;-51
2022/05/04 02:26:08;;;;;;;13.52;3.92;;;;;;;17.45;45.91;101842.50;5082458;28;20037;-53
2022/05/04 02:28:34;;;;;;;13.45;3.92;;;;;;;17.37;46.31;101839.22;5089824;28;20040;-53
2022/05/04 02:30:59;;;;;;;18.77;4.20;;;;;;;17.29;46.40;101838.41;5077384;28;20037;-54
2022/05/04 02:33:25;;;;;;;12.53;4.53;;;;;;;17.31;46.62;101836.34;5088347;28;20037;-55
2022/05/04 02:38:35;;;;;;;15.02;4.20;;;;;;;17.11;47.08;101832.91;5078461;28;20028;-54
2022/05/04 02:41:01;;;;;;;10.02;4.90;;;;;;;17.04;47.44;101836.44;5090650;28;20036;-55
2022/05/04 02:43:28;;;;;;;20.77;5.20;;;;;;;17.08;47.54;101827.94;5080435;28;20059;-55
2022/05/04 02:45:57;;;;;;;19.10;5.18;;;;;;;17.08;47.63;101823.34;5084079;28;20036;-56
2022/05/04 02:48:22;;;;;;;12.95;3.92;;;;;;;16.83;48.06;101826.75;5088067;28;20048;-50
2022/05/04 02:50:48;;;;;;;17.20;4.17;;;;;;;16.80;48.31;101820.91;5077108;28;20605;-54
2022/05/04 02:53:13;;;;;;;16.67;4.63;;;;;;;17.03;48.01;101815.88;5073856;28;20300;-54
2022/05/04 02:55:39;;;;;;;15.35;4.82;;;;;;;16.90;48.25;101821.31;5082230;28;20032;-51
2022/05/04 02:58:05;;;;;;;17.45;4.90;;;;;;;16.95;48.08;101826.91;5082644;28;20033;-52
2022/05/04 03:00:31;;;;;;;14.32;4.00;;;;;;;16.74;48.58;101828.84;5088057;28;20039;-51
2022/05/04 03:02:57;;;;;;;15.43;4.72;;;;;;;16.92;48.30;101824.63;5077298;28;20037;-54
2022/05/04 03:05:24;;;;;;;15.70;4.53;;;;;;;17.04;47.99;101817.53;5088622;28;20059;-54
2022/05/04 03:07:50;;;;;;;17.55;5.32;;;;;;;17.18;47.48;101817.47;5083368;28;20040;-55
2022/05/04 03:10:15;;;;;;;12.77;4.57;;;;;;;17.05;47.67;101808.38;5080807;28;20044;-49
2022/05/04 03:12:41;;;;;;;15.63;4.78;;;;;;;17.92;46.38;101820.50;5090010;28;20267;-54
2022/05/04 03:15:08;;;;;;;18.73;5.72;;;;;;;18.24;45.48;101818.81;5073827;28;20048;-54
2022/05/04 03:17:35;;;;;;;15.85;4.07;;;;;;;18.14;45.58;101819.34;5080794;28;20040;-55
2022/05/04 03:20:01;;;;;;;9.88;4.00;;;;;;;16.95;47.52;101805.28;5086305;28;20048;-54
2022/05/04 03:22:28;;;;;;;12.85;4.53;;;;;;;16.52;48.89;101808.53;5092046;28;20029;-53
2022/05/04 03:24:54;;;;;;;13.70;4.72;;;;;;;16.53;49.21;101805.66;5096201;28;20064;-54
2022/05/04 03:27:19;;;;;;;14.17;5.00;;;;;;;16.59;49.24;101806.66;5082746;28;20039;-54
2022/05/04 03:29:45;;;;;;;22.43;4.40;;;;;;;16.62;49.22;101795.44;5089241;28;20036;-54
2022/05/04 03:32:10;;;;;;;14.90;4.82;;;;;;;16.61;49.28;101804.59;5089513;28;20144;-53
2022/05/04 03:34:37;;;;;;;16.10;4.45;;;;;;;16.54;49.59;101803.75;5082056;28;20041;-54
2022/05/04 03:37:03;;;;;;;11.82;4.00;;;;;;;16.46;49.63;101805.66;5094183;28;20100;-56
2022/05/04 03:39:29;;;;;;;21.90;4.80;;;;;;;17.41;47.42;101806.09;5083700;28;20032;-55
2022/05/04 03:41:56;;;;;;;14.80;3.75;;;;;;;17.50;46.96;101809.38;5087671;28;20073;-52
2022/05/04 03:44:21;;;;;;;16.85;4.72;;;;;;;17.53;46.86;101808.97;5083089;28;20037;-56
2022/05/04 03:46:49;;;;;;;11.57;4.35;;;;;;;17.63;46.57;101808.44;5077481;28;20101;-52
2022/05/04 03:49:16;;;;;;;16.38;4.75;;;;;;;17.53;46.86;101803.56;5092856;28;20079;-54
2022/05/04 03:51:43;;;;;;;13.45;4.10;;;;;;;16.54;48.46;101806.47;5085402;28;20051;-50
2022/05/04 03:54:09;;;;;;;12.57;4.47;;;;;;;15.99;50.81;101810.28;5085659;28;20071;-54
2022/05/04 03:56:36;;;;;;;16.20;4.87;;;;;;;15.97;51.29;101809.66;5092465;28;20036;-53
2022/05/04 03:59:03;;;;;;;10.52;4.97;;;;;;;15.74;51.66;101805.47;5079845;28;20187;-51
2022/05/04 04:01:29;;;;;;;13.98;4.40;;;;;;;15.82;52.13;101807.97;5090985;28;20025;-55
2022/05/04 04:03:54;;;;;;;16.73;5.27;;;;;;;15.86;52.05;101809.19;5086822;28;20036;-55
2022/05/04 04:06:21;;;;;;;20.65;6.53;;;;;;;15.76;52.71;101811.50;5083619;28;20037;-57
2022/05/04 04:08:50;;;;;;;11.82;4.05;;;;;;;15.69;52.91;101807.97;5093116;28;20062;-53
2022/05/04 04:11:17;;;;;;;16.75;5.03;;;;;;;15.61;53.41;101801.72;5081160;28;20055;-52
2022/05/04 04:13:43;;;;;;;16.48;4.30;;;;;;;15.48;54.06;101804.41;5089281;28;20021;-52
2022/05/04 04:16:08;;;;;;;18.10;4.55;;;;;;;15.62;53.11;101808.78;5088190;28;20036;-51
2022/05/04 04:18:35;;;;;;;15.60;5.47;;;;;;;15.53;53.54;101807.31;5081753;28;20037;-54
2022/05/04 04:23:45;;;;;;;29.00;6.68;;;;;;;15.25;55.18;101805.59;5084738;28;20047;-53
2022/05/04 04:26:12;;;;;;;25.60;6.13;;;;;;;15.32;54.85;101811.00;5084754;28;20104;-54
2022/05/04 04:28:39;;;;;;;18.50;5.18;;;;;;;15.33;55.02;101808.09;5092069;28;20096;-54
2022/05/04 04:31:06;;;;;;;16.25;5.53;;;;;;;15.32;54.99;101817.22;5079137;28;20051;-53
2022/05/04 04:33:31;;;;;;;22.20;6.60;;;;;;;15.32;55.30;101811.84;5090181;28;20053;-55
2022/05/04 04:35:58;;;;;;;16.73;4.53;;;;;;;15.43;55.36;101820.34;5086448;28;20051;-51
2022/05/04 04:38:25;;;;;;;23.98;6.68;;;;;;;15.53;55.02;101818.09;5082508;28;20167;-54
2022/05/04 04:40:51;;;;;;;11.63;4.15;;;;;;;15.17;56.81;101819.25;5092966;28;20059;-53
2022/05/04 04:43:17;;;;;;;18.02;5.03;;;;;;;15.07;58.04;101819.63;5080725;28;20028;-50
2022/05/04 04:45:44;;;;;;;15.32;5.43;;;;;;;15.13;57.91;101818.00;5088331;28;20048;-51
2022/05/04 04:48:11;;;;;;;30.75;10.00;;;;;;;15.13;58.77;101818.00;5087966;28;20082;-54
2022/05/04 04:50:36;;;;;;;13.45;4.97;;;;;;;15.04;59.27;101820.88;5080936;28;20061;-53
2022/05/04 04:53:02;;;;;;;14.77;5.03;;;;;;;15.94;56.69;101815.47;5092507;28;20047;-52
2022/05/04 04:55:27;;;;;;;18.52;5.43;;;;;;;16.44;53.39;101812.28;5081644;28;20029;-54
2022/05/04 04:57:53;;;;;;;14.13;4.82;;;;;;;16.73;51.90;101810.16;5087076;28;20033;-53
2022/05/04 05:00:20;;;;;;;15.87;4.83;;;;;;;16.70;51.93;101816.81;5088450;28;20095;-54
2022/05/04 05:02:45;;;;;;;15.68;5.30;;;;;;;16.76;51.34;101821.34;5079672;28;20033;-53
2022/05/04 05:05:10;;;;;;;16.80;5.37;;;;;;;16.70;51.67;101822.22;5092934;28;20040;-54
2022/05/04 05:07:36;;;;;;;20.23;5.50;;;;;;;16.63;51.91;101816.00;5082556;28;20058;-52
2022/05/04 05:10:02;;;;;;;17.43;5.50;;;;;;;16.36;52.74;101810.66;5085780;28;20037;-55
2022/05/04 05:12:28;;;;;;;13.77;5.32;;;;;;;16.12;53.34;101810.25;5089492;28;20063;-52
2022/05/04 05:17:38;;;;;;;15.18;4.72;;;;;;;16.26;52.54;101815.66;5088442;28;20029;-54
2022/05/04 05:20:04;;;;;;;21.23;4.70;;;;;;;16.43;51.77;101813.34;5060514;28;20044;-53
2022/05/04 05:22:30;;;;;;;21.70;5.72;;;;;;;16.39;51.57;101814.81;5070145;28;20075;-54
2022/05/04 05:24:56;;;;;;;17.92;4.50;;;;;;;16.25;52.05;101816.69;5066887;28;20037;-53
2022/05/04 05:27:22;;;;;;;22.17;4.73;;;;;;;16.17;52.16;101812.34;5069071;28;20036;-51
2022/05/04 05:29:48;;;;;;;13.45;4.80;;;;;;;16.77;50.62;101817.59;5060422;28;20063;-54
2022/05/04 05:32:13;;;;;;;24.50;5.80;;;;;;;16.78;50.23;101815.75;5067499;28;20033;-51
2022/05/04 05:34:39;;;;;;;11.95;4.63;;;;;;;16.79;49.87;101814.72;5062219;28;20342;-53
2022/05/04 05:37:04;;;;;;;12.60;4.10;;;;;;;16.81;49.70;101817.19;5067180;28;20044;-54
2022/05/04 05:39:30;;;;;;;14.70;4.60;;;;;;;16.79;49.51;101822.81;5072991;28;20063;-51
2022/05/04 05:41:55;;;;;;;11.13;4.20;;;;;;;16.83;49.28;101821.34;5068516;28;20052;-55
2022/05/04 05:44:21;;;;;;;10.87;4.40;;;;;;;16.73;49.29;101821.78;5064108;28;20056;-51
2022/05/04 05:46:47;;;;;;;20.20;4.20;;;;;;;16.92;48.92;101820.03;5069008;28;20029;-53
2022/05/04 05:49:12;;;;;;;14.23;4.23;;;;;;;16.98;48.65;101822.94;5072677;28;20051;-54
2022/05/04 05:51:38;;;;;;;27.90;5.15;;;;;;;17.03;48.35;101826.69;5068139;28;20112;-54
2022/05/04 05:54:03;;;;;;;21.47;5.43;;;;;;;16.70;49.21;101821.38;5063900;28;20048;-54
2022/05/04 05:56:29;;;;;;;20.57;4.07;;;;;;;17.01;48.49;101822.56;5063659;28;20037;-54
2022/05/04 05:58:54;;;;;;;13.73;4.13;;;;;;;16.90;48.28;101829.41;5073095;28;20267;-55
2022/05/04 06:01:20;;;;;;;14.60;4.47;;;;;;;16.69;48.69;101830.50;5075133;28;20281;-54
2022/05/04 06:03:45;;;;;;;10.97;4.53;;;;;;;16.72;48.74;101830.94;5069442;28;20037;-54
2022/05/04 06:06:10;;;;;;;9.90;3.80;;;;;;;15.66;50.68;101828.06;5060195;28;20282;-54
2022/05/04 06:08:36;;;;;;;16.53;4.33;;;;;;;16.57;49.28;101822.22;5059226;28;20030;-55
2022/05/04 06:11:02;;;;;;;14.27;4.57;;;;;;;15.94;50.05;101828.97;5064886;28;20029;-53
2022/05/04 06:13:27;;;;;;;19.98;4.50;;;;;;;15.86;50.57;101830.78;5067420;28;20101;-55
2022/05/04 06:15:53;;;;;;;16.20;4.13;;;;;;;16.26;50.43;101831.84;5063786;28;20044;-56
2022/05/04 06:18:18;;;;;;;19.53;4.77;;;;;;;17.02;48.65;101829.63;5086270;28;20119;-54
2022/05/04 06:20:43;;;;;;;16.63;5.10;;;;;;;16.28;49.50;101824.38;5075631;28;20396;-53
2022/05/04 06:23:10;;;;;;;13.93;4.55;;;;;;;16.90;49.04;101826.72;5063060;28;20026;-53
2022/05/04 06:25:36;;;;;;;16.27;4.13;;;;;;;16.28;49.69;101824.38;5079567;28;20051;-52
2022/05/04 06:28:03;;;;;;;14.60;3.90;;;;;;;17.36;47.45;101834.84;5077541;28;20036;-54
2022/05/04 06:35:56;;;;;;;14.00;4.20;;;;;;;17.71;45.21;101837.13;5073760;28;20063;-54
2022/05/04 06:38:21;;;;;;;17.03;4.60;;;;;;;17.58;44.95;101836.19;5085394;28;20036;-55
2022/05/04 06:40:47;;;;;;;20.13;3.70;;;;;;;17.80;45.29;101833.13;5071718;28;20112;-52
2022/05/04 06:43:13;;;;;;;13.40;3.80;;;;;;;17.73;44.92;101835.84;5064490;28;20037;-49
2022/05/04 06:45:38;;;;;;;13.63;3.70;;;;;;;17.65;44.74;101835.28;5062918;28;20034;-54
2022/05/04 06:48:04;;;;;;;16.47;4.37;;;;;;;17.76;44.46;101840.81;5063566;28;20060;-53
2022/05/04 06:50:30;;;;;;;14.15;3.20;;;;;;;17.96;43.94;101837.16;5066342;28;20299;-51
2022/05/04 06:52:56;;;;;;;13.70;3.38;;;;;;;18.01;43.95;101831.94;5068399;28;20064;-52
2022/05/04 06:55:21;;;;;;;7.77;3.70;;;;;;;18.05;43.37;101838.53;5064168;28;20040;-52
2022/05/04 06:57:47;;;;;;;13.23;3.20;;;;;;;18.16;43.14;101836.19;5064497;28;20266;-52
2022/05/04 07:00:12;;;;;;;22.90;3.93;;;;;;;18.30;43.16;101845.00;5065389;28;20118;-56
2022/05/04 07:02:38;;;;;;;16.20;3.67;;;;;;;18.43;42.90;101847.56;5065495;28;20033;-52
2022/05/04 07:05:05;;;;;;;12.77;3.90;;;;;;;18.73;42.22;101837.88;5070426;28;20116;-54
2022/05/04 07:07:30;;;;;;;;;;;;;;;18.43;42.29;101833.22;5062573;28;20044;-53
2022/05/04 07:09:56;;;;;;;10.20;4.90;;;;;;;18.72;42.02;101828.94;5063595;28;19917;-53
2022/05/04 07:12:21;;;;;;;9.63;4.38;;;;;;;18.83;41.42;101831.94;5063402;28;20025;-51
2022/05/04 07:14:47;;;;;;;12.10;4.10;;;;;;;18.84;41.11;101834.44;5073247;28;20040;-52
2022/05/04 07:17:12;;;;;;;13.63;3.75;;;;;;;18.99;41.37;101835.94;5066590;28;20036;-54
2022/05/04 07:19:38;;;;;;;13.07;3.13;;;;;;;18.87;41.08;101833.13;5069612;28;20048;-52
2022/05/04 07:22:04;;;;;;;9.80;3.42;;;;;;;18.64;41.64;101831.94;5064080;28;20048;-54
2022/05/04 07:24:30;;;;;;;8.63;3.08;;;;;;;18.71;41.67;101832.72;5072781;28;20098;-52
2022/05/04 07:26:55;;;;;;;19.47;3.90;;;;;;;18.89;41.28;101844.56;5064133;28;20033;-54
2022/05/04 07:29:21;;;;;;;13.47;4.07;;;;;;;19.18;40.98;101843.00;5063985;28;20072;-52
2022/05/04 07:31:46;;;;;;;10.87;3.60;;;;;;;19.18;40.41;101844.91;5065631;28;20037;-55
2022/05/04 07:34:14;;;;;;;10.47;3.90;;;;;;;19.02;40.97;101832.78;5063309;28;20068;-52
2022/05/04 07:36:40;;;;;;;9.38;3.58;;;;;;;19.01;41.24;101831.97;5063818;28;20064;-49
2022/05/04 07:39:06;;;;;;;9.45;3.00;;;;;;;19.28;40.36;101841.63;5067163;28;20093;-52
2022/05/04 07:44:16;;;;;;;8.10;3.47;;;;;;;19.60;40.06;101846.81;5068069;28;20029;-56
2022/05/04 07:46:43;;;;;;;13.47;4.63;;;;;;;19.18;40.58;101844.91;5058384;28;20289;-51
2022/05/04 07:49:08;;;;;;;14.07;3.63;;;;;;;19.42;40.49;101845.78;5069002;28;20283;-53
2022/05/04 07:51:34;;;;;;;9.63;4.00;;;;;;;19.33;40.87;101841.78;5069016;28;20290;-53
2022/05/04 07:53:59;;;;;;;16.87;4.17;;;;;;;19.60;40.62;101853.03;5063428;28;20101;-52
2022/05/04 07:56:25;;;;;;;17.23;4.07;;;;;;;19.72;40.40;101850.38;5061430;28;21202;-54
2022/05/04 07:58:50;;;;;;;14.98;4.47;;;;;;;19.81;40.06;101847.31;5058650;28;20033;-53
2022/05/04 08:04:18;;;;;;;5.83;3.53;;;;;;;20.03;39.55;101855.75;5059727;28;20329;-51
2022/05/04 08:06:44;;;;;;;16.10;4.60;;;;;;;19.83;39.67;101856.88;5067321;28;20283;-55
2022/05/04 08:09:10;;;;;;;;;;;;;;;19.48;39.81;101850.28;5087426;28;20289;-56
2022/05/04 08:11:35;;;;;;;13.33;4.27;;;;;;;19.56;39.82;101854.56;5067872;28;19972;-53
2022/05/04 08:14:01;;;;;;;13.27;4.17;;;;;;;19.70;40.06;101847.06;5076555;28;20083;-56
2022/05/04 08:16:26;;;;;;;10.87;4.87;;;;;;;19.45;41.01;101849.94;5071501;28;20043;-51
2022/05/04 08:18:51;;;;;;;11.68;3.28;;;;;;;20.00;39.63;101848.09;5064065;28;20029;-56
2022/05/04 08:21:17;;;;;;;13.37;5.30;;;;;;;20.31;39.23;101849.63;5074335;28;20037;-55
2022/05/04 08:23:43;;;;;;;26.65;6.63;;;;;;;20.40;39.29;101850.09;5063832;28;20044;-50
2022/05/04 08:26:10;;;;;;;12.98;5.30;;;;;;;20.30;39.32;101847.97;5069712;28;20064;-53
2022/05/04 08:28:36;;;;;;;14.63;5.50;;;;;;;20.66;38.46;101852.56;5068024;28;20093;-55
2022/05/04 08:31:01;;;;;;;15.27;6.38;;;;;;;20.65;38.42;101850.94;5063891;28;20282;-56
2022/05/04 08:33:28;;;;;;;12.73;4.50;;;;;;;20.29;39.18;101843.63;5073933;28;20043;-54
2022/05/04 08:35:54;;;;;;;12.00;4.97;;;;;;;20.64;38.65;101852.81;5067533;28;20059;-55
2022/05/04 08:38:19;;;;;;;13.00;4.73;;;;;;;20.92;38.14;101851.22;5074151;28;20262;-55
2022/05/04 08:40:45;;;;;;;12.02;4.13;;;;;;;21.28;37.44;101853.81;5060451;28;20064;-58
2022/05/04 08:43:11;;;;;;;14.45;4.72;;;;;;;20.39;38.90;101859.31;5091516;28;20048;-55
2022/05/04 08:45:38;;;;;;;14.95;4.45;;;;;;;21.13;37.82;101857.09;5082261;28;20091;-52
2022/05/04 08:48:06;;;;;;;13.67;4.73;;;;;;;21.20;38.10;101858.59;5086644;28;20041;-55
2022/05/04 08:50:33;;;;;;;13.63;4.37;;;;;;;21.26;37.90;101851.38;5063745;28;20297;-54
2022/05/04 08:52:58;;;;;;;11.50;5.03;;;;;;;20.91;38.67;101850.41;5069870;28;20261;-55
2022/05/04 08:55:24;;;;;;;8.80;4.40;;;;;;;20.55;38.75;101862.41;5069476;28;20262;-55
2022/05/04 08:57:50;;;;;;;15.70;5.15;;;;;;;20.99;38.14;101851.09;5061231;28;20029;-57
2022/05/04 09:00:17;;;;;;;14.18;5.20;;;;;;;20.36;39.14;101848.94;5066455;28;20032;-53
2022/05/04 09:02:42;;;;;;;15.25;4.75;;;;;;;20.54;39.13;101849.88;5064446;28;20040;-57
2022/05/04 09:05:29;;;;;;;13.43;5.03;;;;;;;21.14;38.50;101850.56;5069191;28;20055;-54
2022/05/04 09:07:58;;;;;;;11.53;4.70;;;;;;;21.04;38.70;101851.19;5064277;28;20101;-53
2022/05/04 09:10:31;;;;;;;14.87;4.70;;;;;;;21.85;36.83;101850.22;5066459;28;20302;-51
2022/05/04 09:12:57;;;;;;;11.60;5.40;;;;;;;22.07;36.86;101854.94;5088366;28;20280;-53
2022/05/04 09:15:27;;;;;;;12.60;4.50;;;;;;;21.92;36.78;101852.81;5079094;28;20269;-52
2022/05/04 09:17:59;;;;;;;15.30;4.60;;;;;;;22.17;36.43;101852.38;5087186;28;20060;-54
2022/05/04 09:20:47;;;;;;;18.30;4.87;;;;;;;22.35;35.96;101847.72;5087796;28;20287;-53
2022/05/04 09:23:16;;;;;;;22.77;4.73;;;;;;;22.68;35.63;101848.75;5078486;28;20269;-55
2022/05/04 09:25:41;;;;;;;7.10;3.97;;;;;;;22.90;35.29;101851.47;5078612;28;20266;-54
2022/05/04 09:28:12;;;;;;;15.57;4.53;;;;;;;23.98;33.99;101839.13;5072657;28;20032;-53
2022/05/04 09:30:49;;;;;;;15.63;5.27;;;;;;;24.88;32.84;101843.78;5071411;28;20038;-54
2022/05/04 09:33:28;;;;;;;10.87;5.00;;;;;;;24.94;32.07;101843.81;5079716;28;20104;-56
2022/05/04 09:35:55;;;;;;;10.03;4.37;;;;;;;25.43;31.31;101843.34;5087217;28;20036;-55
2022/05/04 09:46:42;;;;;;;12.80;5.13;;;;;;;28.19;27.65;101846.59;5080974;28;20059;-56
2022/05/04 09:49:16;;;;;;;21.97;5.60;;;;;;;28.80;26.80;101843.44;5090295;28;20120;-53
2022/05/04 09:51:50;;;;;;;9.60;3.77;;;;;;;29.58;26.49;101852.22;5081069;28;20036;-55
2022/05/04 09:54:27;;;;;;;6.70;3.63;;;;;;;29.72;25.39;101845.94;5083301;28;20035;-55
2022/05/04 09:56:55;;;;;;;8.47;4.17;;;;;;;30.37;24.86;101858.00;5090650;28;20032;-56
2022/05/04 09:59:23;;;;;;;10.33;4.07;;;;;;;29.76;24.91;101860.75;5077593;28;20028;-54
2022/05/04 10:01:51;;;;;;;8.93;3.90;;;;;;;28.57;26.05;101848.66;5087743;28;20037;-56
2022/05/04 10:04:21;;;;;;;14.77;4.73;;;;;;;29.34;25.54;101847.63;5080963;28;20029;-56
2022/05/04 10:06:50;;;;;;;9.30;4.40;;;;;;;30.32;24.13;101855.34;5074264;28;20051;-54
2022/05/04 10:09:16;;;;;;;13.87;5.33;;;;;;;30.72;24.08;101847.38;5090594;28;20033;-52
2022/05/04 10:11:42;;;;;;;10.77;5.60;;;;;;;31.18;24.01;101855.75;5080535;28;20043;-54
2022/05/04 10:14:10;;;;;;;10.82;4.93;;;;;;;31.63;23.36;101851.41;5084770;28;20040;-55
2022/05/04 10:16:46;;;;;;;15.85;5.05;;;;;;;32.05;23.08;101846.41;5087957;28;20044;-57
2022/05/04 10:19:18;;;;;;;6.97;3.83;;;;;;;32.76;22.17;101847.47;5077223;28;20056;-51
2022/05/04 10:21:49;;;;;;;8.90;4.07;;;;;;;32.43;22.06;101853.44;5087788;28;20035;-55
2022/05/04 10:24:17;;;;;;;9.65;4.40;;;;;;;31.85;22.82;101856.09;5084366;28;20076;-57
2022/05/04 10:26:45;;;;;;;9.40;4.63;;;;;;;31.84;22.14;101854.47;5079684;28;20044;-54
2022/05/04 10:32:09;;;;;;;11.05;4.43;;;;;;;32.09;21.67;101846.59;5083256;28;20108;-57
2022/05/04 10:34:41;;;;;;;13.40;4.32;;;;;;;32.13;21.75;101845.66;5080736;28;20036;-55
2022/05/04 10:37:07;;;;;;;10.77;4.60;;;;;;;33.05;21.72;101837.75;5091899;28;20167;-57
2022/05/04 10:39:33;;;;;;;8.93;4.18;;;;;;;33.85;20.71;101847.59;5078017;28;20053;-56
2022/05/04 10:42:00;;;;;;;11.38;5.30;;;;;;;34.29;20.41;101835.50;5067538;28;20044;-56
2022/05/04 10:44:50;;;;;;;14.95;4.38;;;;;;;33.88;20.54;101837.78;5066430;28;20040;-55
2022/05/04 10:47:19;;;;;;;11.23;4.28;;;;;;;34.09;20.31;101837.09;5073078;28;20039;-57
2022/05/04 10:49:45;;;;;;;9.38;4.10;;;;;;;35.13;19.89;101834.00;5068239;28;20042;-55
2022/05/04 10:52:10;;;;;;;8.50;3.65;;;;;;;35.26;20.57;101835.66;5068160;28;20036;-56
2022/05/04 10:54:47;;;;;;;9.40;4.18;;;;;;;34.07;19.93;101834.63;5068921;28;20040;-52
2022/05/04 10:57:13;;;;;;;8.50;3.90;;;;;;;34.12;20.49;101836.41;5071062;28;20033;-56
2022/05/04 10:59:39;;;;;;;10.20;4.50;;;;;;;34.91;19.61;101833.16;5070809;28;20071;-57
2022/05/04 11:02:09;;;;;;;11.07;4.90;;;;;;;34.78;19.63;101832.28;5066070;28;20028;-56
2022/05/04 11:04:35;;;;;;;7.78;3.67;;;;;;;35.61;19.36;101834.50;5068970;28;20029;-55
2022/05/04 11:07:02;;;;;;;11.27;4.47;;;;;;;36.41;17.97;101829.56;5071731;28;20073;-56
2022/05/04 11:09:32;;;;;;;7.00;3.78;;;;;;;36.39;18.66;101840.25;5071139;28;20033;-53
2022/05/04 11:12:03;;;;;;;12.38;4.60;;;;;;;36.02;17.80;101840.28;5069441;28;20125;-56
2022/05/04 11:14:29;;;;;;;7.72;3.95;;;;;;;37.08;17.82;101836.78;5068873;28;20032;-58
2022/05/04 11:16:57;;;;;;;8.63;3.97;;;;;;;37.22;17.55;101838.31;5071271;28;20041;-55
2022/05/04 11:19:27;;;;;;;13.25;4.40;;;;;;;37.86;16.90;101838.44;5064859;28;20032;-57
2022/05/04 11:21:54;;;;;;;9.40;4.63;;;;;;;38.21;17.15;101836.91;5059078;28;20029;-58
2022/05/04 11:24:19;;;;;;;9.73;4.57;;;;;;;38.00;17.17;101832.41;5063509;28;20064;-58
2022/05/04 11:26:50;;;;;;;8.88;4.13;;;;;;;38.51;17.44;101836.38;5071084;28;20041;-56
2022/05/04 11:29:22;;;;;;;10.25;4.43;;;;;;;39.22;16.04;101830.69;5088554;28;20100;-58
2022/05/04 11:31:55;;;;;;;12.50;4.88;;;;;;;40.17;15.59;101827.50;5071488;28;20029;-57
2022/05/04 11:34:23;;;;;;;9.95;4.75;;;;;;;40.48;15.52;101830.38;5071074;28;20060;-58
2022/05/04 11:36:51;;;;;;;12.30;4.82;;;;;;;40.63;14.82;101825.75;5069150;28;20036;-58
2022/05/04 11:39:22;;;;;;;8.98;4.72;;;;;;;39.93;15.10;101820.38;5076355;28;20048;-56
2022/05/04 11:41:50;;;;;;;11.00;4.82;;;;;;;37.68;16.05;101810.09;5076074;28;20080;-58
2022/05/04 11:44:18;;;;;;;10.20;4.53;;;;;;;37.43;16.45;101804.66;5073448;28;20039;-54
2022/05/04 11:46:50;;;;;;;7.88;4.78;;;;;;;37.35;16.67;101813.97;5078802;28;20053;-54
2022/05/04 11:49:15;;;;;;;7.93;4.95;;;;;;;37.47;18.04;101811.13;5077884;28;20045;-56
2022/05/04 11:51:42;;;;;;;10.05;5.47;;;;;;;38.56;16.07;101808.97;5076666;28;20088;-56